Time;durP1;ratioP1;P1;durP2;ratioP2;P2;SDS_P1;SDS_P2;PMS_P1;PMS_P2;Temp;Humidity;BMP_temperature;BMP_pressure;BME280_temperature;BME280_humidity;BME280_pressure;Samples;Min_cycle;Max_cycle;Signal;HPM_P1;HPM_P2
2021/10/31 00:00:18;;;;;;;22.05;18.13;;;13.40;99.90;;;;;;5110800;28;20615;-70
2021/10/31 00:02:45;;;;;;;23.50;18.58;;;13.50;99.90;;;;;;5104553;28;20225;-71
2021/10/31 00:05:16;;;;;;;21.85;19.58;;;13.50;99.90;;;;;;5109194;28;20216;-70
2021/10/31 00:07:43;;;;;;;24.40;17.83;;;13.40;99.90;;;;;;5112547;28;20251;-70
2021/10/31 00:10:12;;;;;;;27.67;19.02;;;13.30;99.90;;;;;;5112414;28;20193;-71
2021/10/31 00:12:40;;;;;;;29.80;21.48;;;13.20;99.90;;;;;;5109588;28;20225;-71
2021/10/31 00:15:10;;;;;;;24.13;20.70;;;13.20;99.90;;;;;;5111091;28;20227;-70
2021/10/31 00:17:37;;;;;;;33.22;20.90;;;13.20;99.90;;;;;;5109329;28;20201;-71
2021/10/31 00:20:06;;;;;;;27.30;21.98;;;13.10;99.90;;;;;;5110872;28;20201;-70
2021/10/31 00:22:33;;;;;;;28.10;22.65;;;13.10;99.90;;;;;;5111284;28;20786;-69
2021/10/31 00:25:00;;;;;;;29.42;22.98;;;13.10;99.90;;;;;;5111123;28;20244;-70
2021/10/31 00:27:29;;;;;;;25.40;21.60;;;13.00;99.90;;;;;;5103419;28;20201;-70
2021/10/31 00:29:56;;;;;;;31.95;23.40;;;12.90;99.90;;;;;;5109902;28;20201;-70
2021/10/31 00:32:23;;;;;;;31.85;24.10;;;12.80;99.90;;;;;;5111897;28;20591;-70
2021/10/31 00:34:51;;;;;;;31.15;24.70;;;12.80;99.90;;;;;;5110761;28;20217;-70
2021/10/31 00:37:18;;;;;;;25.95;21.90;;;12.70;99.90;;;;;;5109804;28;20219;-69
2021/10/31 00:39:45;;;;;;;35.72;24.58;;;12.70;99.90;;;;;;5111452;28;20279;-70
2021/10/31 00:42:12;;;;;;;30.65;23.38;;;12.60;99.90;;;;;;5109423;28;20226;-70
2021/10/31 00:44:42;;;;;;;31.00;24.00;;;12.70;99.90;;;;;;5112069;28;20306;-70
2021/10/31 00:47:09;;;;;;;31.70;24.45;;;12.60;99.90;;;;;;5110031;28;20211;-70
2021/10/31 00:49:37;;;;;;;35.08;24.25;;;12.60;99.90;;;;;;5112365;28;20374;-70
2021/10/31 00:52:05;;;;;;;30.58;24.75;;;12.60;99.90;;;;;;5111773;28;20225;-70
2021/10/31 00:54:37;;;;;;;33.33;25.38;;;12.50;99.90;;;;;;5111859;28;20189;-70
2021/10/31 00:57:06;;;;;;;34.03;25.80;;;12.60;99.90;;;;;;5111368;28;20202;-69
2021/10/31 00:59:33;;;;;;;36.40;25.45;;;12.60;99.90;;;;;;5110727;28;20253;-70
2021/10/31 01:02:06;;;;;;;35.10;26.60;;;12.60;99.90;;;;;;5114836;28;20859;-70
2021/10/31 01:04:35;;;;;;;31.10;24.65;;;12.60;99.90;;;;;;5114777;28;20216;-70
2021/10/31 01:07:40;;;;;;;31.05;24.48;;;12.60;99.90;;;;;;5112002;28;20208;-69
2021/10/31 01:10:21;;;;;;;39.50;27.35;;;12.70;99.90;;;;;;5109286;28;20212;-69
2021/10/31 01:13:03;;;;;;;32.20;25.65;;;12.60;99.90;;;;;;5090100;28;20690;-70
2021/10/31 01:15:40;;;;;;;34.33;26.38;;;12.70;99.90;;;;;;5108163;28;20206;-69
2021/10/31 01:18:35;;;;;;;30.67;25.42;;;12.60;99.90;;;;;;5115012;28;20204;-69
2021/10/31 01:21:12;;;;;;;30.90;24.90;;;12.70;99.90;;;;;;5111970;28;20216;-70
2021/10/31 01:23:57;;;;;;;29.92;23.67;;;12.70;99.90;;;;;;5112304;28;20226;-70
2021/10/31 01:26:35;;;;;;;31.60;26.67;;;12.80;99.90;;;;;;5111185;28;20292;-70
2021/10/31 01:29:26;;;;;;;36.25;24.35;;;12.90;99.90;;;;;;5111057;28;20200;-70
2021/10/31 01:32:05;;;;;;;38.70;27.13;;;12.90;99.90;;;;;;5092433;28;20242;-70
2021/10/31 01:34:49;;;;;;;29.85;23.65;;;12.90;99.90;;;;;;5094068;28;20202;-69
2021/10/31 01:37:29;;;;;;;31.98;25.65;;;12.90;99.90;;;;;;5113519;28;20300;-69
2021/10/31 01:40:06;;;;;;;35.35;27.85;;;12.90;99.90;;;;;;5110385;28;20233;-69
2021/10/31 01:42:41;;;;;;;30.48;23.65;;;12.90;99.90;;;;;;5113199;28;20216;-69
2021/10/31 01:45:16;;;;;;;34.90;26.45;;;12.90;99.90;;;;;;5108903;28;20220;-70
2021/10/31 01:47:48;;;;;;;29.20;23.75;;;12.90;99.90;;;;;;5095358;28;20204;-69
2021/10/31 01:50:33;;;;;;;36.20;27.85;;;12.90;99.90;;;;;;5106944;28;20559;-70
2021/10/31 01:53:06;;;;;;;37.97;26.98;;;12.90;99.90;;;;;;5104960;28;20281;-70
2021/10/31 01:55:38;;;;;;;32.58;25.60;;;12.90;99.90;;;;;;5110407;28;20213;-70
2021/10/31 01:58:06;;;;;;;34.95;25.65;;;12.90;99.90;;;;;;5113322;28;20205;-70
2021/10/31 02:00:37;;;;;;;35.17;26.20;;;12.80;99.90;;;;;;5112230;28;20211;-70
2021/10/31 02:03:06;;;;;;;31.92;25.10;;;12.70;99.90;;;;;;5113405;28;20224;-70
2021/10/31 02:05:37;;;;;;;29.35;23.85;;;12.80;99.90;;;;;;5113125;28;20220;-69
2021/10/31 02:08:08;;;;;;;29.95;24.83;;;12.80;99.90;;;;;;5113410;28;20730;-70
2021/10/31 02:10:37;;;;;;;31.08;24.63;;;12.80;99.90;;;;;;5114044;28;20351;-70
2021/10/31 02:13:05;;;;;;;33.85;25.27;;;12.80;99.90;;;;;;5112572;28;20220;-70
2021/10/31 02:15:34;;;;;;;32.08;25.85;;;12.80;99.90;;;;;;5113019;28;20284;-70
2021/10/31 02:18:03;;;;;;;33.33;27.65;;;12.70;99.90;;;;;;5116037;28;20205;-69
2021/10/31 02:20:32;;;;;;;33.55;25.83;;;12.70;99.90;;;;;;5113446;28;20283;-70
2021/10/31 02:23:03;;;;;;;32.58;26.30;;;12.60;99.90;;;;;;5112802;28;20229;-69
2021/10/31 02:25:31;;;;;;;34.38;27.05;;;12.60;99.90;;;;;;5107140;28;20239;-70
2021/10/31 02:27:59;;;;;;;36.53;27.52;;;12.60;99.90;;;;;;5111175;28;20257;-70
2021/10/31 02:30:26;;;;;;;30.30;25.98;;;12.60;99.90;;;;;;5112637;28;20205;-70
2021/10/31 02:32:53;;;;;;;41.42;27.67;;;12.60;99.90;;;;;;5113228;28;20243;-70
2021/10/31 02:35:40;;;;;;;30.20;26.30;;;12.60;99.90;;;;;;5112948;28;20246;-70
2021/10/31 02:38:09;;;;;;;34.80;26.17;;;12.60;99.90;;;;;;5113094;28;20223;-70
2021/10/31 02:40:36;;;;;;;35.83;28.15;;;12.60;99.90;;;;;;5112844;28;20209;-70
2021/10/31 02:43:05;;;;;;;34.15;26.90;;;12.50;99.90;;;;;;5112339;28;20263;-71
2021/10/31 02:45:33;;;;;;;30.55;24.45;;;12.60;99.90;;;;;;5111857;28;20297;-70
2021/10/31 02:48:03;;;;;;;30.80;25.23;;;12.60;99.90;;;;;;5112828;28;20200;-70
2021/10/31 02:50:37;;;;;;;31.30;26.13;;;12.60;99.90;;;;;;5113195;28;20208;-69
2021/10/31 02:53:19;;;;;;;29.33;24.38;;;12.50;99.90;;;;;;5110981;28;20246;-70
2021/10/31 02:55:55;;;;;;;31.42;26.00;;;12.50;99.90;;;;;;5094859;28;20283;-69
2021/10/31 02:58:28;;;;;;;31.13;24.08;;;12.50;99.90;;;;;;5111350;28;20200;-69
2021/10/31 03:01:01;;;;;;;33.55;25.60;;;12.50;99.90;;;;;;5112778;28;20302;-70
2021/10/31 03:03:30;;;;;;;33.45;27.20;;;12.60;99.90;;;;;;5112433;28;20238;-70
2021/10/31 03:05:58;;;;;;;30.35;25.90;;;12.50;99.90;;;;;;5111826;28;20221;-70
2021/10/31 03:08:28;;;;;;;29.55;25.75;;;12.50;99.90;;;;;;5113159;28;20254;-70
2021/10/31 03:10:57;;;;;;;31.92;25.80;;;12.50;99.90;;;;;;5110490;28;20293;-70
2021/10/31 03:13:26;;;;;;;36.70;27.90;;;12.50;99.90;;;;;;5108311;28;20304;-69
2021/10/31 03:15:53;;;;;;;33.20;26.35;;;12.40;99.90;;;;;;5107737;28;20216;-69
2021/10/31 03:18:21;;;;;;;30.48;26.60;;;12.50;99.90;;;;;;5106301;28;20639;-70
2021/10/31 03:20:49;;;;;;;36.00;25.50;;;12.40;99.90;;;;;;5107039;28;20206;-70
2021/10/31 03:23:16;;;;;;;39.15;28.95;;;12.40;99.90;;;;;;5108771;28;20231;-69
2021/10/31 03:25:46;;;;;;;36.80;29.08;;;12.30;99.90;;;;;;5105800;28;20219;-69
2021/10/31 03:28:14;;;;;;;41.30;31.08;;;12.20;99.90;;;;;;5107760;28;20203;-70
2021/10/31 03:30:41;;;;;;;37.88;28.98;;;12.20;99.90;;;;;;5112509;28;20198;-70
2021/10/31 03:33:08;;;;;;;42.50;31.02;;;12.10;99.90;;;;;;5106629;28;20698;-69
2021/10/31 03:35:36;;;;;;;34.85;27.85;;;12.20;99.90;;;;;;5111351;28;20190;-69
2021/10/31 03:38:04;;;;;;;30.25;26.83;;;12.20;99.90;;;;;;5112894;28;20208;-70
2021/10/31 03:40:33;;;;;;;37.90;29.52;;;12.20;99.90;;;;;;5112419;28;20212;-70
2021/10/31 03:43:01;;;;;;;36.70;28.55;;;12.10;99.90;;;;;;5111968;28;20235;-70
2021/10/31 03:45:29;;;;;;;45.88;30.55;;;12.10;99.90;;;;;;5111169;28;20218;-69
2021/10/31 03:47:56;;;;;;;36.60;27.95;;;12.00;99.90;;;;;;5110949;28;20202;-69
2021/10/31 03:50:24;;;;;;;37.55;29.10;;;12.00;99.90;;;;;;5111777;28;20281;-69
2021/10/31 03:52:55;;;;;;;33.90;26.65;;;11.90;99.90;;;;;;5110311;28;20249;-69
2021/10/31 03:55:28;;;;;;;38.28;29.13;;;12.00;99.90;;;;;;5112090;28;20579;-69
2021/10/31 03:57:56;;;;;;;40.10;31.40;;;11.90;99.90;;;;;;5112023;28;20196;-69
2021/10/31 04:00:26;;;;;;;35.85;29.20;;;11.90;99.90;;;;;;5111895;28;20261;-70
2021/10/31 04:02:53;;;;;;;38.17;27.42;;;11.90;99.90;;;;;;5112212;28;20560;-69
2021/10/31 04:05:23;;;;;;;38.90;30.67;;;11.90;99.90;;;;;;5111379;28;20207;-70
2021/10/31 04:07:50;;;;;;;42.53;31.67;;;11.80;99.90;;;;;;5110316;28;20282;-70
2021/10/31 04:10:18;;;;;;;40.55;30.02;;;11.80;99.90;;;;;;5111825;28;20204;-69
2021/10/31 04:12:49;;;;;;;34.15;27.25;;;11.80;99.90;;;;;;5111499;28;20218;-69
2021/10/31 04:15:16;;;;;;;39.03;28.35;;;11.70;99.90;;;;;;5111519;28;20210;-70
2021/10/31 04:17:45;;;;;;;35.00;28.05;;;11.60;99.90;;;;;;5111762;28;20271;-70
2021/10/31 04:20:13;;;;;;;33.60;26.45;;;11.60;99.90;;;;;;5110721;28;20203;-70
2021/10/31 04:22:40;;;;;;;35.17;27.85;;;11.60;99.90;;;;;;5111954;28;20231;-70
2021/10/31 04:25:08;;;;;;;41.40;29.88;;;11.50;99.90;;;;;;5111398;28;20658;-70
2021/10/31 04:27:36;;;;;;;45.08;32.90;;;11.50;99.90;;;;;;5112846;28;20207;-70
2021/10/31 04:30:04;;;;;;;39.15;29.10;;;11.40;99.90;;;;;;5112431;28;20235;-70
2021/10/31 04:32:32;;;;;;;45.28;31.85;;;11.40;99.90;;;;;;5110351;28;20226;-70
2021/10/31 04:35:01;;;;;;;42.63;30.80;;;11.40;99.90;;;;;;5114160;28;20208;-71
2021/10/31 04:37:29;;;;;;;37.22;28.42;;;11.30;99.90;;;;;;5115863;28;20215;-71
2021/10/31 04:39:59;;;;;;;46.30;32.17;;;11.30;99.90;;;;;;5115702;28;20198;-70
2021/10/31 04:42:31;;;;;;;43.67;30.02;;;11.40;99.90;;;;;;5116059;28;20231;-70
2021/10/31 04:44:58;;;;;;;46.33;31.45;;;11.30;99.90;;;;;;5115839;28;20581;-70
2021/10/31 04:47:26;;;;;;;48.33;34.42;;;11.30;99.90;;;;;;5115591;28;20238;-70
2021/10/31 04:49:55;;;;;;;37.33;28.63;;;11.40;99.90;;;;;;5115421;28;20226;-70
2021/10/31 04:52:24;;;;;;;39.67;30.20;;;11.40;99.90;;;;;;5115758;28;20250;-70
2021/10/31 04:54:52;;;;;;;47.72;31.00;;;11.50;99.90;;;;;;5115642;28;20294;-70
2021/10/31 04:57:19;;;;;;;46.67;31.25;;;11.50;99.90;;;;;;5115274;28;20578;-69
2021/10/31 04:59:46;;;;;;;43.88;30.42;;;11.50;99.90;;;;;;5115994;28;20210;-69
2021/10/31 05:02:13;;;;;;;45.00;32.55;;;11.50;99.90;;;;;;5113662;28;20257;-69
2021/10/31 05:04:41;;;;;;;46.45;29.40;;;11.40;99.90;;;;;;5112438;28;20196;-69
2021/10/31 05:07:08;;;;;;;42.38;30.70;;;11.50;99.90;;;;;;5105391;28;20679;-69
2021/10/31 05:09:36;;;;;;;37.05;27.85;;;11.40;99.90;;;;;;5103027;28;20200;-69
2021/10/31 05:12:04;;;;;;;37.72;29.95;;;11.40;99.90;;;;;;5113677;28;20225;-69
2021/10/31 05:14:32;;;;;;;34.65;27.58;;;11.50;99.90;;;;;;5115123;28;20204;-69
2021/10/31 05:17:00;;;;;;;40.60;28.80;;;11.40;99.90;;;;;;5104399;28;20203;-69
2021/10/31 05:19:27;;;;;;;49.47;33.08;;;11.40;99.90;;;;;;5105876;28;20651;-69
2021/10/31 05:21:54;;;;;;;41.40;30.30;;;11.40;99.90;;;;;;5114620;28;20234;-70
2021/10/31 05:24:21;;;;;;;44.72;29.60;;;11.50;99.90;;;;;;5114181;28;20228;-69
2021/10/31 05:26:50;;;;;;;48.20;33.55;;;11.50;99.90;;;;;;5112332;28;20215;-70
2021/10/31 05:29:18;;;;;;;37.53;28.35;;;11.40;99.90;;;;;;5104898;28;20199;-70
2021/10/31 05:31:45;;;;;;;39.60;28.60;;;11.50;99.90;;;;;;5110981;28;20226;-69
2021/10/31 05:34:13;;;;;;;41.95;27.10;;;11.50;99.90;;;;;;5113871;28;20220;-69
2021/10/31 05:36:40;;;;;;;49.47;30.60;;;11.60;99.90;;;;;;5103053;28;20206;-69
2021/10/31 05:39:08;;;;;;;53.28;34.67;;;11.50;99.90;;;;;;5112495;28;20208;-69
2021/10/31 05:41:35;;;;;;;38.20;28.15;;;11.40;99.90;;;;;;5105230;28;20280;-70
2021/10/31 05:44:04;;;;;;;54.88;34.25;;;11.40;99.90;;;;;;5112527;28;20294;-69
2021/10/31 05:46:33;;;;;;;45.88;30.95;;;11.40;99.90;;;;;;5103645;28;20226;-69
2021/10/31 05:49:01;;;;;;;52.42;33.75;;;11.40;99.90;;;;;;5112735;28;20207;-71
2021/10/31 05:51:30;;;;;;;53.80;35.80;;;11.40;99.90;;;;;;5109162;28;20195;-69
2021/10/31 05:53:57;;;;;;;50.05;34.63;;;11.30;99.90;;;;;;5105185;28;20274;-69
2021/10/31 05:56:25;;;;;;;55.38;32.13;;;11.30;99.90;;;;;;5112379;28;20211;-69
2021/10/31 05:58:52;;;;;;;41.42;30.10;;;11.20;99.90;;;;;;5107227;28;20210;-69
2021/10/31 06:01:21;;;;;;;46.63;31.65;;;11.20;99.90;;;;;;5109131;28;20199;-70
2021/10/31 06:03:49;;;;;;;58.53;35.67;;;11.20;99.90;;;;;;5114432;28;20230;-70
2021/10/31 06:06:22;;;;;;;44.83;30.25;;;11.10;99.90;;;;;;5113426;28;20700;-69
2021/10/31 06:08:49;;;;;;;54.80;36.13;;;11.10;99.90;;;;;;5111550;28;20248;-70
2021/10/31 06:11:17;;;;;;;48.65;31.17;;;11.00;99.90;;;;;;5113635;28;20195;-70
2021/10/31 06:13:45;;;;;;;57.20;36.95;;;11.00;99.90;;;;;;5114072;28;20235;-70
2021/10/31 06:16:12;;;;;;;52.17;33.10;;;10.90;99.90;;;;;;5112345;28;20689;-70
2021/10/31 06:18:41;;;;;;;48.45;33.60;;;10.90;99.90;;;;;;5114033;28;20293;-70
2021/10/31 06:21:08;;;;;;;42.88;30.70;;;10.90;99.90;;;;;;5113867;28;20208;-70
2021/10/31 06:23:36;;;;;;;45.92;33.13;;;10.90;99.90;;;;;;5109210;28;20692;-70
2021/10/31 06:26:04;;;;;;;43.97;31.73;;;11.00;99.90;;;;;;5113196;28;20210;-70
2021/10/31 06:28:32;;;;;;;44.17;31.30;;;11.00;99.90;;;;;;5105310;28;20201;-69
2021/10/31 06:31:00;;;;;;;49.15;34.13;;;11.00;99.90;;;;;;5101975;28;20214;-70
2021/10/31 06:33:27;;;;;;;50.67;32.47;;;11.00;99.90;;;;;;5102903;28;20607;-70
2021/10/31 06:35:55;;;;;;;53.78;33.42;;;11.00;99.90;;;;;;5101585;28;20206;-70
2021/10/31 06:38:23;;;;;;;45.35;31.95;;;11.00;99.90;;;;;;5109476;28;20201;-69
2021/10/31 06:40:50;;;;;;;47.50;31.65;;;11.10;99.90;;;;;;5106518;28;20212;-70
2021/10/31 06:43:17;;;;;;;52.55;34.53;;;11.00;99.90;;;;;;5104850;28;20209;-70
2021/10/31 06:45:45;;;;;;;46.58;31.65;;;11.00;99.90;;;;;;5112158;28;20205;-70
2021/10/31 06:48:12;;;;;;;53.13;33.92;;;11.10;99.90;;;;;;5112256;28;20286;-70
2021/10/31 06:50:40;;;;;;;50.72;31.13;;;11.00;99.90;;;;;;5113306;28;20204;-70
2021/10/31 06:53:08;;;;;;;50.42;31.33;;;11.00;99.90;;;;;;5112406;28;20699;-70
2021/10/31 06:55:36;;;;;;;49.05;32.90;;;11.10;99.90;;;;;;5112877;28;20201;-70
2021/10/31 06:58:04;;;;;;;41.90;29.83;;;11.10;99.90;;;;;;5111392;28;20251;-70
2021/10/31 07:00:32;;;;;;;44.72;30.50;;;11.10;99.90;;;;;;5112461;28;20294;-70
2021/10/31 07:02:59;;;;;;;48.45;30.65;;;11.10;99.90;;;;;;5118655;27;20717;-70
2021/10/31 07:05:26;;;;;;;45.72;30.45;;;11.10;99.90;;;;;;5106534;28;20196;-70
2021/10/31 07:07:53;;;;;;;46.40;30.25;;;11.10;99.90;;;;;;5110368;28;20752;-70
2021/10/31 07:10:22;;;;;;;44.75;31.17;;;11.10;99.90;;;;;;5111571;28;20199;-70
2021/10/31 07:12:49;;;;;;;37.75;27.90;;;11.20;99.90;;;;;;5105042;28;20222;-70
2021/10/31 07:15:19;;;;;;;40.38;29.13;;;11.30;99.90;;;;;;5107867;28;20194;-70
2021/10/31 07:17:46;;;;;;;45.17;31.90;;;11.30;99.90;;;;;;5109588;28;20229;-70
2021/10/31 07:20:14;;;;;;;37.78;27.88;;;11.40;99.90;;;;;;5111432;28;20210;-70
2021/10/31 07:22:41;;;;;;;37.67;28.20;;;11.50;99.90;;;;;;5112953;28;20690;-69
2021/10/31 07:25:11;;;;;;;38.55;29.00;;;11.60;99.90;;;;;;5110622;28;20204;-69
2021/10/31 07:27:39;;;;;;;40.00;28.88;;;11.60;99.90;;;;;;5109398;28;20272;-68
2021/10/31 07:30:08;;;;;;;35.72;25.48;;;11.70;99.90;;;;;;5111730;28;20208;-70
2021/10/31 07:32:36;;;;;;;38.47;28.30;;;11.80;99.90;;;;;;5107483;28;20310;-68
2021/10/31 07:35:03;;;;;;;38.65;26.85;;;12.00;99.90;;;;;;5111461;28;20541;-69
2021/10/31 07:37:30;;;;;;;35.88;25.60;;;12.00;99.90;;;;;;5111774;28;20612;-70
2021/10/31 07:39:58;;;;;;;36.85;27.88;;;12.10;99.90;;;;;;5110916;28;20208;-69
2021/10/31 07:42:28;;;;;;;40.30;27.40;;;12.30;99.90;;;;;;5111490;28;20311;-68
2021/10/31 07:44:57;;;;;;;31.80;25.83;;;12.70;99.90;;;;;;5110392;28;20266;-69
2021/10/31 07:47:25;;;;;;;30.38;22.98;;;13.00;99.90;;;;;;5109991;28;20221;-70
2021/10/31 07:49:53;;;;;;;30.50;24.77;;;13.20;99.90;;;;;;5110911;28;20212;-71
2021/10/31 07:52:21;;;;;;;31.13;22.65;;;13.30;99.90;;;;;;5108924;28;20215;-70
2021/10/31 07:54:50;;;;;;;29.92;24.13;;;13.50;99.90;;;;;;5105947;28;20198;-72
2021/10/31 07:57:22;;;;;;;28.48;23.77;;;13.50;99.90;;;;;;5112550;28;20193;-69
2021/10/31 07:59:49;;;;;;;30.88;23.05;;;13.70;99.90;;;;;;5113364;28;20243;-69
2021/10/31 08:02:20;;;;;;;27.98;21.58;;;13.60;99.90;;;;;;5111680;28;20224;-69
2021/10/31 08:04:48;;;;;;;35.97;25.02;;;13.50;99.90;;;;;;5111113;28;20193;-67
2021/10/31 08:07:17;;;;;;;39.28;26.95;;;13.20;99.90;;;;;;5111863;28;20208;-68
2021/10/31 08:09:44;;;;;;;34.55;25.15;;;13.10;99.90;;;;;;5115329;28;20358;-67
2021/10/31 08:12:12;;;;;;;31.92;24.90;;;13.00;99.90;;;;;;5115467;28;20213;-68
2021/10/31 08:14:39;;;;;;;37.42;26.55;;;12.90;99.90;;;;;;5115818;28;20208;-67
2021/10/31 08:17:06;;;;;;;33.70;25.67;;;12.90;99.90;;;;;;5115645;28;20204;-70
2021/10/31 08:19:35;;;;;;;28.50;23.17;;;12.90;99.90;;;;;;5116017;28;20203;-67
2021/10/31 08:22:02;;;;;;;30.38;24.60;;;13.00;99.90;;;;;;5112697;28;20224;-66
2021/10/31 08:24:29;;;;;;;31.02;25.13;;;13.10;99.90;;;;;;5106585;28;20655;-67
2021/10/31 08:26:57;;;;;;;32.47;25.95;;;13.30;99.90;;;;;;5106473;28;20698;-68
2021/10/31 08:29:24;;;;;;;33.58;25.75;;;13.50;99.90;;;;;;5115322;28;20202;-67
2021/10/31 08:31:54;;;;;;;28.75;24.02;;;13.80;99.90;;;;;;5112711;28;20572;-67
2021/10/31 08:34:22;;;;;;;30.33;25.05;;;14.00;99.90;;;;;;5114907;28;20572;-68
2021/10/31 08:36:50;;;;;;;26.08;23.17;;;14.20;99.90;;;;;;5112913;28;20209;-67
2021/10/31 08:39:19;;;;;;;23.85;21.08;;;14.40;99.90;;;;;;5111661;28;20237;-69
2021/10/31 08:41:46;;;;;;;28.13;23.90;;;14.70;99.90;;;;;;5114055;28;20203;-70
2021/10/31 08:44:14;;;;;;;23.73;21.13;;;15.40;99.90;;;;;;5112083;28;20223;-69
2021/10/31 08:46:41;;;;;;;28.08;21.10;;;15.70;99.90;;;;;;5115082;28;20252;-69
2021/10/31 08:49:09;;;;;;;23.00;19.77;;;15.70;99.90;;;;;;5110602;28;20664;-71
2021/10/31 08:51:47;;;;;;;20.37;18.23;;;16.20;99.90;;;;;;5114518;28;20846;-68
2021/10/31 08:54:16;;;;;;;22.27;18.97;;;16.50;99.90;;;;;;5116222;28;20818;-70
2021/10/31 08:56:47;;;;;;;24.43;20.40;;;16.30;99.90;;;;;;5115379;28;20450;-69
2021/10/31 08:59:14;;;;;;;20.63;18.37;;;16.10;99.90;;;;;;5116165;28;20960;-70
2021/10/31 09:01:42;;;;;;;23.95;19.80;;;16.30;99.90;;;;;;5115478;28;20437;-70
2021/10/31 09:04:10;;;;;;;25.40;20.27;;;16.10;99.90;;;;;;5114555;28;20211;-71
2021/10/31 09:06:38;;;;;;;23.05;20.40;;;15.90;99.90;;;;;;5101886;28;20969;-72
2021/10/31 09:09:05;;;;;;;24.58;18.88;;;15.80;99.90;;;;;;5109883;28;20204;-71
2021/10/31 09:11:34;;;;;;;22.27;18.23;;;15.70;99.90;;;;;;5113224;28;20205;-71
2021/10/31 09:14:01;;;;;;;21.40;19.03;;;15.70;99.90;;;;;;5112751;28;21028;-71
2021/10/31 09:16:28;;;;;;;23.48;19.98;;;15.50;99.90;;;;;;5111186;28;20451;-72
2021/10/31 09:18:55;;;;;;;25.05;20.60;;;15.10;99.90;;;;;;5111665;28;20194;-71
2021/10/31 09:21:28;;;;;;;24.13;17.45;;;15.10;99.90;;;;;;5108763;28;20671;-71
2021/10/31 09:23:55;;;;;;;20.20;17.45;;;15.10;99.90;;;;;;5108783;28;20676;-71
2021/10/31 09:26:22;;;;;;;21.17;18.60;;;15.00;99.90;;;;;;5111655;28;20202;-72
2021/10/31 09:28:51;;;;;;;19.92;15.80;;;15.20;99.90;;;;;;5106525;28;20242;-70
2021/10/31 09:31:18;;;;;;;18.20;15.65;;;15.40;99.90;;;;;;5110986;28;20202;-71
2021/10/31 09:33:47;;;;;;;22.33;15.80;;;15.50;99.90;;;;;;5106207;28;20219;-68
2021/10/31 09:36:14;;;;;;;19.50;15.30;;;15.50;99.90;;;;;;5108374;28;20211;-69
2021/10/31 09:38:42;;;;;;;22.03;16.90;;;15.60;99.90;;;;;;5111025;28;20595;-69
2021/10/31 09:41:12;;;;;;;22.38;16.95;;;15.60;99.90;;;;;;5109629;28;20442;-68
2021/10/31 09:43:47;;;;;;;16.15;14.52;;;15.70;99.90;;;;;;5111662;28;20231;-68
2021/10/31 09:46:16;;;;;;;19.40;15.30;;;15.90;99.90;;;;;;5106576;28;20194;-67
2021/10/31 09:48:43;;;;;;;19.40;16.10;;;16.00;99.90;;;;;;5107518;28;20537;-68
2021/10/31 09:51:10;;;;;;;18.05;15.85;;;16.00;99.90;;;;;;5109242;28;20202;-68
2021/10/31 09:53:39;;;;;;;18.67;15.20;;;15.60;99.90;;;;;;5105746;28;20244;-70
2021/10/31 09:56:07;;;;;;;18.80;16.30;;;15.60;99.90;;;;;;5105341;28;20221;-69
2021/10/31 09:58:36;;;;;;;15.88;14.07;;;15.70;99.90;;;;;;5111951;28;20282;-70
2021/10/31 10:01:13;;;;;;;16.02;13.95;;;16.10;99.90;;;;;;5111317;28;20244;-68
2021/10/31 10:03:54;;;;;;;15.73;13.93;;;16.20;99.90;;;;;;5103010;28;20242;-70
2021/10/31 10:06:22;;;;;;;17.83;15.27;;;16.30;99.90;;;;;;5111448;28;20449;-69
2021/10/31 10:09:02;;;;;;;15.17;12.43;;;16.40;99.90;;;;;;5109303;28;20804;-70
2021/10/31 10:11:31;;;;;;;15.73;13.03;;;16.70;99.90;;;;;;5109045;28;20443;-69
2021/10/31 10:14:17;;;;;;;17.07;15.17;;;16.90;99.90;;;;;;5100251;28;20448;-69
2021/10/31 10:16:44;;;;;;;17.20;13.77;;;17.10;99.90;;;;;;5101233;28;20447;-70
2021/10/31 10:19:21;;;;;;;17.07;15.27;;;17.40;99.90;;;;;;5109548;28;20971;-71
2021/10/31 10:21:57;;;;;;;15.07;13.50;;;17.40;99.90;;;;;;5109473;28;20455;-70
2021/10/31 10:24:25;;;;;;;15.90;12.93;;;17.50;99.90;;;;;;5109216;28;20439;-70
2021/10/31 10:26:57;;;;;;;19.00;15.47;;;17.60;99.90;;;;;;5111103;28;20450;-70
2021/10/31 10:29:27;;;;;;;15.20;13.73;;;17.60;99.90;;;;;;5112165;28;20501;-70
2021/10/31 10:31:58;;;;;;;13.63;11.47;;;17.50;99.90;;;;;;5111903;28;20477;-68
2021/10/31 10:34:45;;;;;;;17.83;14.00;;;17.30;99.90;;;;;;5113154;28;20515;-69
2021/10/31 10:37:15;;;;;;;17.20;13.80;;;17.10;99.90;;;;;;5111625;28;20307;-69
2021/10/31 10:39:45;;;;;;;15.55;13.90;;;16.70;99.90;;;;;;5113209;28;20460;-70
2021/10/31 10:42:20;;;;;;;13.80;12.30;;;16.50;99.90;;;;;;5111203;28;20227;-71
2021/10/31 10:44:48;;;;;;;17.37;14.33;;;16.50;99.90;;;;;;5109434;28;20948;-71
2021/10/31 10:47:20;;;;;;;20.17;15.35;;;16.50;99.90;;;;;;5111770;28;20441;-69
2021/10/31 10:49:49;;;;;;;21.52;15.10;;;16.30;99.90;;;;;;5113302;28;20280;-70
2021/10/31 10:52:42;;;;;;;16.90;13.73;;;16.30;99.90;;;;;;5113178;28;20230;-73
2021/10/31 10:55:15;;;;;;;15.95;13.98;;;16.20;99.90;;;;;;5103735;28;20438;-70
2021/10/31 10:57:44;;;;;;;18.17;14.53;;;16.10;99.90;;;;;;5111564;28;20198;-70
2021/10/31 11:00:17;;;;;;;17.33;14.60;;;16.00;99.90;;;;;;5112631;28;20487;-70
2021/10/31 11:02:45;;;;;;;14.52;12.90;;;15.90;99.90;;;;;;5112013;28;20266;-68
2021/10/31 11:05:19;;;;;;;18.40;14.30;;;15.90;99.90;;;;;;5111622;28;20198;-69
2021/10/31 11:07:48;;;;;;;16.85;15.05;;;16.00;99.90;;;;;;5112179;28;20221;-69
2021/10/31 11:10:19;;;;;;;20.30;15.60;;;16.00;99.90;;;;;;5112310;28;20296;-70
2021/10/31 11:12:47;;;;;;;16.23;14.27;;;16.10;99.90;;;;;;5111776;28;20256;-70
2021/10/31 11:15:18;;;;;;;20.40;17.25;;;16.00;99.90;;;;;;5109648;28;20698;-69
2021/10/31 11:17:47;;;;;;;17.45;14.77;;;16.00;99.90;;;;;;5112268;28;20200;-70
2021/10/31 11:20:19;;;;;;;15.20;13.57;;;15.90;99.90;;;;;;5109161;28;20208;-70
2021/10/31 11:22:48;;;;;;;22.75;16.00;;;15.90;99.90;;;;;;5112049;28;20464;-70
2021/10/31 11:25:17;;;;;;;17.10;13.60;;;15.70;99.90;;;;;;5111674;28;20210;-69
2021/10/31 11:27:45;;;;;;;18.83;16.65;;;15.70;99.90;;;;;;5111929;28;20596;-69
2021/10/31 11:30:15;;;;;;;16.05;13.10;;;15.80;99.90;;;;;;5111953;28;20211;-69
2021/10/31 11:32:44;;;;;;;15.60;14.00;;;15.90;99.90;;;;;;5111322;28;20406;-69
2021/10/31 11:35:15;;;;;;;17.40;14.27;;;15.90;99.90;;;;;;5111128;28;20947;-69
2021/10/31 11:37:46;;;;;;;13.88;12.35;;;16.00;99.90;;;;;;5111245;28;20458;-69
2021/10/31 11:40:15;;;;;;;17.07;13.30;;;16.00;99.90;;;;;;5111856;28;20227;-69
2021/10/31 11:42:46;;;;;;;17.23;13.88;;;16.00;99.90;;;;;;5111210;28;20466;-69
2021/10/31 11:45:17;;;;;;;20.05;16.83;;;16.20;99.90;;;;;;5110488;28;20206;-69
2021/10/31 11:47:46;;;;;;;15.88;14.10;;;16.00;99.90;;;;;;5111438;28;20210;-69
2021/10/31 11:50:17;;;;;;;15.90;13.32;;;16.00;99.90;;;;;;5111280;28;20208;-69
2021/10/31 11:52:52;;;;;;;16.03;14.07;;;15.90;99.90;;;;;;5106509;28;20242;-68
2021/10/31 11:55:41;;;;;;;16.90;15.10;;;16.00;99.90;;;;;;5101311;28;20454;-69
2021/10/31 11:58:52;;;;;;;14.60;13.10;;;15.90;99.90;;;;;;5084265;28;20249;-68
2021/10/31 12:01:31;;;;;;;14.60;13.20;;;16.00;99.90;;;;;;5107716;28;20204;-70
2021/10/31 12:04:00;;;;;;;16.58;13.90;;;15.90;99.90;;;;;;5096117;28;20314;-69
2021/10/31 12:06:48;;;;;;;20.70;15.00;;;15.80;99.90;;;;;;5098994;28;20204;-68
2021/10/31 12:09:31;;;;;;;21.50;18.75;;;15.70;99.90;;;;;;5100941;28;20254;-68
2021/10/31 12:12:19;;;;;;;18.38;16.08;;;15.70;99.90;;;;;;5098643;28;20276;-68
2021/10/31 12:14:58;;;;;;;15.50;11.85;;;15.70;99.90;;;;;;5082074;28;20283;-67
2021/10/31 12:17:27;;;;;;;13.50;11.43;;;15.70;99.90;;;;;;5104459;28;20554;-68
2021/10/31 12:19:56;;;;;;;16.92;13.60;;;15.90;99.90;;;;;;5103490;28;20234;-67
2021/10/31 12:22:35;;;;;;;19.63;13.67;;;16.10;99.90;;;;;;5107025;28;20225;-68
2021/10/31 12:25:06;;;;;;;12.63;11.25;;;16.20;99.90;;;;;;5099081;28;20453;-69
2021/10/31 12:27:45;;;;;;;11.90;10.43;;;16.10;99.90;;;;;;5106552;28;20619;-68
2021/10/31 12:30:41;;;;;;;14.27;12.60;;;16.10;99.90;;;;;;5099663;28;20849;-69
2021/10/31 12:33:11;;;;;;;12.13;10.83;;;16.00;99.90;;;;;;5109799;28;20484;-69
2021/10/31 12:35:39;;;;;;;17.08;11.13;;;16.00;99.90;;;;;;5108999;28;20446;-69
2021/10/31 12:38:33;;;;;;;14.43;12.17;;;16.00;99.90;;;;;;5112419;28;20234;-68
2021/10/31 12:41:34;;;;;;;11.13;10.03;;;16.10;99.90;;;;;;5100606;28;20445;-67
2021/10/31 12:44:14;;;;;;;15.80;11.20;;;16.10;99.90;;;;;;5096578;28;20536;-69